x

Ilm2 - 5 Miles Se Of Wrightsville Beach, Nc (41038) Weather Station

8:00am - Mon 24th Nov 2014 All times are EST. -5 hours from GMT.

  • Wind
    9mph, 11mph gusts
  • Sea Temp 60°f
  • Air Temp 59°f
  • Sea Pressure 1011.4mb
  • Ilm2 - 5 Miles Se Of Wrightsville Beach, Nc
  • Ilm2 - 5 Miles Se Of Wrightsville Beach, Nc

More Historic Weather Station data

Upgrade to MSW Pro to gain access to the past 30 days of data for over 8000 Wavebouys and Weather Stations around the globe.

Join Pro

Comparision Forecast

View Surf forecast
   
Mon 11/24 8:00am 9 11 mph 1011.4mb 60f 59f
7:00am 9 11 mph 1010.8mb 60f 59f
6:00am 11 13 mph 1010.4mb 60f 59f
5:00am 9 11 mph 1010mb 59f 59f
4:00am 4 7 mph 1009.6mb 60f 59f
3:00am 9 13 mph 1009.8mb 60f 60f
2:00am 13 18 mph 1009.4mb 60f 60f
1:00am 11 16 mph 1011mb 60f 64f
12:00am 16 20 mph 1010.3mb 60f 61f
Sun 11/23 11:00pm 22 27 mph 1010.2mb 60f 62f
10:00pm 25 29 mph 1011.1mb 60f 63f
9:00pm 27 31 mph 1011.5mb 60f 64f
8:00pm 27 31 mph 1012.8mb 60f 63f
7:00pm 25 29 mph 1012.9mb 60f 62f
6:00pm 25 29 mph 1014mb 60f 63f
5:00pm 22 29 mph 1014.3mb 60f 62f
4:00pm 25 29 mph 1015.4mb 60f 62f
3:00pm 20 27 mph 1016.3mb 60f 62f
2:00pm 20 22 mph 1017.2mb 59f 62f
1:00pm 20 22 mph 1018.7mb 60f 59f
12:00pm 13
mph
1020.9mb 60f 59f
11:00am 7 9 mph 1022.1mb 60f 58f
10:00am 9 11 mph 1023.7mb 60f 57f
9:00am 4 7 mph 1024.1mb 60f 56f
8:00am 4 7 mph 1024.1mb 60f 58f
7:00am 7 9 mph 1024mb 60f 58f
6:00am 4 7 mph 1024.5mb 60f 56f
5:00am 4 7 mph 1024.2mb 59f 58f
4:00am 2 7 mph 1024.5mb 59f 59f
3:00am 4 7 mph 1024.9mb 59f 58f
2:00am 9
mph
1025.2mb 59f 56f
1:00am 9 11 mph 1025.5mb 59f 56f
12:00am 11 13 mph 1026.4mb 59f 56f
Sat 11/22 11:00pm 9 11 mph 1026.7mb 59f 55f
10:00pm 11 13 mph 1027.4mb 60f 56f
9:00pm 9 11 mph 1027.9mb 60f 56f
8:00pm 13 16 mph 1027.8mb 60f 55f
7:00pm 11 13 mph 1028.5mb 60f 54f
6:00pm 13 16 mph 1028.8mb 60f 53f
5:00pm 11 13 mph 1029.3mb 60f 53f
4:00pm 11 13 mph 1029.4mb 60f 54f
3:00pm 9 11 mph 1029.9mb 60f 55f
2:00pm 11 13 mph 1030.8mb 60f 54f
1:00pm 11 16 mph 1031.7mb 60f 53f
12:00pm 13 18 mph 1032.8mb 60f 52f
11:00am 13 16 mph 1033.6mb 60f 52f
10:00am 16 18 mph 1034.1mb 60f 50f
9:00am 11 16 mph 1034.5mb 60f 50f
8:00am 13 18 mph 1034.1mb 59f 48f
7:00am 13 18 mph 1033.7mb 59f 46f
6:00am 16 20 mph 1033.3mb 59f 46f
5:00am 16 20 mph 1033.4mb 59f 45f
4:00am 13 18 mph 1033.4mb 59f 45f
3:00am 18 22 mph 1033.3mb 59f 45f
2:00am 18 22 mph 1033.2mb 59f 46f
1:00am 18 22 mph 1033.5mb 59f 45f
12:00am 16 20 mph 1033.5mb 59f 44f
Fri 11/21 11:00pm 22 27 mph 1033.4mb 59f 45f
10:00pm 22 27 mph 1033.3mb 60f 45f
9:00pm 20 27 mph 1032.9mb 60f 46f
8:00pm 22 25 mph 1032.5mb 60f 47f
7:00pm 20 25 mph 1032.1mb 60f 49f
6:00pm 16 18 mph 1031.5mb 60f 50f
5:00pm 11 16 mph 1030.7mb 60f 51f
4:00pm 9 13 mph 1030mb 60f 51f
3:00pm 13 16 mph 1029.2mb 60f 52f
2:00pm 13 18 mph 1028.8mb 60f 51f
1:00pm 9 13 mph 1028.9mb 60f 49f
12:00pm 13 18 mph 1029.3mb 60f 48f
11:00am 18 20 mph 1029.4mb 60f 47f
10:00am 20 25 mph 1029.1mb 60f 46f
9:00am 20 22 mph 1028.1mb 60f 47f
8:00am 20 25 mph 1026.9mb 60f 47f
7:00am 22 25 mph 1025.7mb 60f 47f
6:00am 20 25 mph 1024.3mb 60f 49f
5:00am 18 20 mph 1023.9mb 60f 49f
4:00am 18 20 mph 1023.3mb 60f 50f
3:00am 20 25 mph 1022.8mb 60f 51f
2:00am 18 20 mph 1022.7mb 60f 53f
1:00am 18 25 mph 1022.2mb 60f 54f
12:00am 22 25 mph 1022mb 60f 55f
Thu 11/20 11:00pm 18 20 mph 1021.8mb 60f 55f
10:00pm 20 22 mph 1021.3mb 60f 55f
9:00pm 20 22 mph 1021.1mb 60f 55f
8:00pm 16 20 mph 1020.7mb 60f 56f
7:00pm 22 25 mph 1020.1mb 60f 55f
6:00pm 20 25 mph 1019.4mb 60f 56f
5:00pm 25 29 mph 1018.7mb 61f 55f
4:00pm 25 29 mph 1018.6mb 61f 55f
3:00pm 20 25 mph 1018.4mb 61f 54f